SWR5AM LSZH-LGAV
Flight info
| Callsign | SWR5AM |
|---|---|
| Flight time | N/A |
| Altitude | 39000 |
| Route | DEGES Z2 XEBIX L607 ELMEM N606 GIRIS DCT NIVAS DCT PEVAL DCT ZDA DCT NERRA DCT PETAK DCT PINDO UL607 XORKI |
| Aircraft | A20N/M-SADE2E3FGIRWXY/LB1 |
Departure
| Time | 2026-05-01 14:24 |
|---|---|
| Airport | Zürich Airport (LSZH) |
Arrival
| Time | N/A |
|---|---|
| Airport | Athens Eleftherios Venizelos International Airport (LGAV) |
| Time | Latitude | Longitude | Altitude | Speed | Heading |
|---|---|---|---|---|---|
| 2026-05-01 13:58 | 47.45348 | 8.55754 | 1397 ft | 0 kts | 6° |
| 2026-05-01 14:13 | 47.45335 | 8.55752 | 1408 ft | 2 kts | 6° |
| 2026-05-01 14:13 | 47.45323 | 8.55750 | 1403 ft | 1 kts | 5° |
| 2026-05-01 14:14 | 47.45309 | 8.55749 | 1408 ft | 2 kts | 3° |
| 2026-05-01 14:14 | 47.45294 | 8.55748 | 1407 ft | 2 kts | 360° |
| 2026-05-01 14:14 | 47.45277 | 8.55749 | 1403 ft | 2 kts | 346° |
| 2026-05-01 14:14 | 47.45263 | 8.55761 | 1398 ft | 2 kts | 284° |
| 2026-05-01 14:15 | 47.45261 | 8.55772 | 1405 ft | 0 kts | 275° |
| 2026-05-01 14:16 | 47.45262 | 8.55766 | 1406 ft | 2 kts | 275° |
| 2026-05-01 14:17 | 47.45265 | 8.55704 | 1398 ft | 11 kts | 275° |
| 2026-05-01 14:17 | 47.45270 | 8.55645 | 1396 ft | 8 kts | 277° |
| 2026-05-01 14:17 | 47.45287 | 8.55572 | 1399 ft | 10 kts | 311° |
| 2026-05-01 14:17 | 47.45338 | 8.55533 | 1402 ft | 15 kts | 336° |
| 2026-05-01 14:18 | 47.45483 | 8.55429 | 1399 ft | 19 kts | 334° |
| 2026-05-01 14:18 | 47.45569 | 8.55376 | 1401 ft | 20 kts | 336° |
| 2026-05-01 14:18 | 47.45667 | 8.55295 | 1404 ft | 13 kts | 307° |
| 2026-05-01 14:18 | 47.45704 | 8.55166 | 1401 ft | 15 kts | 312° |
| 2026-05-01 14:19 | 47.45806 | 8.55089 | 1394 ft | 18 kts | 335° |
| 2026-05-01 14:19 | 47.45923 | 8.55006 | 1403 ft | 20 kts | 336° |
| 2026-05-01 14:19 | 47.46046 | 8.54921 | 1400 ft | 20 kts | 334° |
| 2026-05-01 14:19 | 47.46179 | 8.54830 | 1398 ft | 22 kts | 334° |
| 2026-05-01 14:20 | 47.46319 | 8.54735 | 1403 ft | 23 kts | 335° |
| 2026-05-01 14:20 | 47.46631 | 8.54519 | 1394 ft | 26 kts | 335° |
| 2026-05-01 14:20 | 47.46792 | 8.54420 | 1394 ft | 25 kts | 340° |
| 2026-05-01 14:21 | 47.46942 | 8.54320 | 1398 ft | 21 kts | 335° |
| 2026-05-01 14:21 | 47.47078 | 8.54226 | 1407 ft | 22 kts | 335° |
| 2026-05-01 14:21 | 47.47215 | 8.54133 | 1403 ft | 22 kts | 335° |
| 2026-05-01 14:22 | 47.47524 | 8.53921 | 1395 ft | 27 kts | 336° |
| 2026-05-01 14:22 | 47.47663 | 8.53824 | 1405 ft | 18 kts | 336° |
| 2026-05-01 14:22 | 47.47701 | 8.53711 | 1406 ft | 14 kts | 242° |
| 2026-05-01 14:22 | 47.47612 | 8.53637 | 1402 ft | 16 kts | 198° |
| 2026-05-01 14:23 | 47.47518 | 8.53628 | 1405 ft | 12 kts | 161° |
| 2026-05-01 14:23 | 47.47501 | 8.53640 | 1402 ft | 0 kts | 154° |
| 2026-05-01 14:23 | 47.47500 | 8.53640 | 1398 ft | 0 kts | 154° |
| 2026-05-01 14:24 | 47.47272 | 8.53800 | 1403 ft | 72 kts | 154° |
| 2026-05-01 14:24 | 47.46625 | 8.54247 | 1400 ft | 130 kts | 155° |
| 2026-05-01 14:24 | 47.45659 | 8.54912 | 1407 ft | 174 kts | 156° |
| 2026-05-01 14:24 | 47.44554 | 8.55602 | 2047 ft | 167 kts | 155° |
| 2026-05-01 14:25 | 47.43422 | 8.56201 | 2561 ft | 179 kts | 160° |
| 2026-05-01 14:25 | 47.42297 | 8.56908 | 3308 ft | 173 kts | 150° |
| 2026-05-01 14:25 | 47.41209 | 8.57738 | 3786 ft | 185 kts | 151° |
| 2026-05-01 14:25 | 47.40020 | 8.58653 | 4264 ft | 200 kts | 153° |
| 2026-05-01 14:26 | 47.38715 | 8.59586 | 4798 ft | 217 kts | 150° |
| 2026-05-01 14:26 | 47.37025 | 8.63706 | 5600 ft | 268 kts | 94° |
| 2026-05-01 14:26 | 47.37235 | 8.66380 | 6349 ft | 277 kts | 77° |
| 2026-05-01 14:27 | 47.37734 | 8.69142 | 7325 ft | 279 kts | 75° |
| 2026-05-01 14:27 | 47.38237 | 8.71917 | 8309 ft | 280 kts | 76° |
| 2026-05-01 14:27 | 47.38649 | 8.74735 | 9261 ft | 282 kts | 84° |
| 2026-05-01 14:28 | 47.38984 | 8.80479 | 10833 ft | 298 kts | 86° |
| 2026-05-01 14:28 | 47.39149 | 8.83645 | 11199 ft | 321 kts | 86° |
| 2026-05-01 14:28 | 47.39334 | 8.87028 | 11670 ft | 337 kts | 86° |
| 2026-05-01 14:28 | 47.39533 | 8.90508 | 12534 ft | 340 kts | 85° |
| 2026-05-01 14:29 | 47.39737 | 8.93992 | 13394 ft | 343 kts | 85° |
| 2026-05-01 14:29 | 47.39942 | 8.97482 | 14228 ft | 347 kts | 85° |
| 2026-05-01 14:30 | 47.40571 | 9.08314 | 16419 ft | 358 kts | 85° |
| 2026-05-01 14:30 | 47.40781 | 9.11991 | 17147 ft | 362 kts | 85° |
| 2026-05-01 14:30 | 47.40994 | 9.15737 | 17846 ft | 366 kts | 85° |
| 2026-05-01 14:31 | 47.41686 | 9.23192 | 19148 ft | 373 kts | 77° |
| 2026-05-01 14:31 | 47.42270 | 9.26946 | 19762 ft | 376 kts | 77° |
| 2026-05-01 14:31 | 47.42850 | 9.30725 | 20379 ft | 379 kts | 77° |
| 2026-05-01 14:31 | 47.43434 | 9.34566 | 20974 ft | 383 kts | 76° |
| 2026-05-01 14:32 | 47.44017 | 9.38413 | 21580 ft | 386 kts | 76° |
| 2026-05-01 14:32 | 47.44605 | 9.42305 | 22170 ft | 390 kts | 76° |
| 2026-05-01 14:32 | 47.45195 | 9.46233 | 22761 ft | 393 kts | 76° |
| 2026-05-01 14:32 | 47.45792 | 9.50208 | 23331 ft | 397 kts | 76° |
| 2026-05-01 14:33 | 47.46368 | 9.54056 | 23880 ft | 400 kts | 76° |
| 2026-05-01 14:33 | 47.46895 | 9.58240 | 24376 ft | 404 kts | 81° |
| 2026-05-01 14:33 | 47.47077 | 9.62340 | 24868 ft | 408 kts | 88° |
| 2026-05-01 14:33 | 47.46931 | 9.66512 | 25337 ft | 412 kts | 93° |
| 2026-05-01 14:34 | 47.46688 | 9.70748 | 25796 ft | 414 kts | 92° |
| 2026-05-01 14:34 | 47.46454 | 9.75024 | 26252 ft | 417 kts | 92° |
| 2026-05-01 14:34 | 47.46223 | 9.79266 | 26699 ft | 419 kts | 92° |
| 2026-05-01 14:34 | 47.45988 | 9.83581 | 27145 ft | 422 kts | 92° |
| 2026-05-01 14:35 | 47.45748 | 9.87926 | 27570 ft | 425 kts | 92° |
| 2026-05-01 14:35 | 47.45507 | 9.92242 | 28006 ft | 427 kts | 92° |
| 2026-05-01 14:35 | 47.45259 | 9.96644 | 28365 ft | 431 kts | 92° |
| 2026-05-01 14:35 | 47.45007 | 10.01073 | 28823 ft | 432 kts | 92° |
| 2026-05-01 14:36 | 47.44753 | 10.05523 | 29211 ft | 435 kts | 92° |
| 2026-05-01 14:36 | 47.44495 | 10.10000 | 29597 ft | 437 kts | 92° |
| 2026-05-01 14:36 | 47.44236 | 10.14460 | 29966 ft | 440 kts | 92° |
| 2026-05-01 14:36 | 47.43909 | 10.18976 | 30315 ft | 443 kts | 97° |
| 2026-05-01 14:37 | 47.43327 | 10.23429 | 30640 ft | 446 kts | 99° |
| 2026-05-01 14:37 | 47.42716 | 10.27918 | 30941 ft | 448 kts | 99° |
| 2026-05-01 14:37 | 47.42100 | 10.32483 | 31260 ft | 450 kts | 99° |
| 2026-05-01 14:37 | 47.41487 | 10.37026 | 31641 ft | 451 kts | 99° |
| 2026-05-01 14:38 | 47.40638 | 10.41493 | 32032 ft | 454 kts | 109° |
| 2026-05-01 14:38 | 47.39182 | 10.45627 | 32427 ft | 457 kts | 121° |
| 2026-05-01 14:38 | 47.37150 | 10.49263 | 32824 ft | 460 kts | 134° |
| 2026-05-01 14:38 | 47.35537 | 10.51295 | 33071 ft | 462 kts | 142° |
| 2026-05-01 14:39 | 47.31840 | 10.54492 | 33520 ft | 465 kts | 149° |
| 2026-05-01 14:39 | 47.28994 | 10.56734 | 33910 ft | 464 kts | 149° |
| 2026-05-01 14:39 | 47.26145 | 10.58979 | 34300 ft | 463 kts | 149° |
| 2026-05-01 14:39 | 47.23307 | 10.61220 | 34594 ft | 462 kts | 149° |
| 2026-05-01 14:40 | 47.20467 | 10.63462 | 34884 ft | 462 kts | 149° |
| 2026-05-01 14:40 | 47.17634 | 10.65665 | 35157 ft | 462 kts | 152° |
| 2026-05-01 14:40 | 47.14654 | 10.67513 | 35394 ft | 464 kts | 158° |
| 2026-05-01 14:40 | 47.11628 | 10.69158 | 35650 ft | 464 kts | 158° |
| 2026-05-01 14:41 | 47.08597 | 10.70810 | 35881 ft | 464 kts | 158° |
| 2026-05-01 14:41 | 47.05572 | 10.72462 | 36122 ft | 464 kts | 158° |
| 2026-05-01 14:41 | 47.02544 | 10.74116 | 36356 ft | 464 kts | 158° |
| 2026-05-01 14:41 | 46.99511 | 10.75794 | 36543 ft | 465 kts | 157° |
| 2026-05-01 14:42 | 46.96492 | 10.77505 | 36779 ft | 465 kts | 157° |
| 2026-05-01 14:42 | 46.94532 | 10.78620 | 36942 ft | 464 kts | 157° |
| 2026-05-01 14:42 | 46.91254 | 10.80481 | 37172 ft | 464 kts | 157° |
| 2026-05-01 14:42 | 46.88246 | 10.82183 | 37378 ft | 464 kts | 157° |
| 2026-05-01 14:43 | 46.85216 | 10.83891 | 37551 ft | 465 kts | 158° |
| 2026-05-01 14:43 | 46.82220 | 10.85577 | 37734 ft | 465 kts | 157° |
| 2026-05-01 14:43 | 46.79277 | 10.87521 | 37929 ft | 463 kts | 148° |
| 2026-05-01 14:43 | 46.76598 | 10.90081 | 38117 ft | 460 kts | 139° |
| 2026-05-01 14:44 | 46.74233 | 10.93193 | 38272 ft | 458 kts | 130° |
| 2026-05-01 14:44 | 46.69908 | 11.00330 | 38664 ft | 458 kts | 129° |
| 2026-05-01 14:44 | 46.67786 | 11.03819 | 38846 ft | 458 kts | 129° |
| 2026-05-01 14:45 | 46.65598 | 11.07398 | 39012 ft | 458 kts | 129° |
| 2026-05-01 14:45 | 46.61362 | 11.14306 | 39241 ft | 458 kts | 129° |
| 2026-05-01 14:46 | 46.57141 | 11.21170 | 39244 ft | 457 kts | 129° |
| 2026-05-01 14:46 | 46.50759 | 11.31516 | 39244 ft | 458 kts | 129° |
| 2026-05-01 14:47 | 46.46501 | 11.38402 | 39246 ft | 458 kts | 129° |
| 2026-05-01 14:48 | 46.40124 | 11.48676 | 39249 ft | 458 kts | 129° |
| 2026-05-01 14:48 | 46.33723 | 11.58952 | 39260 ft | 457 kts | 129° |
| 2026-05-01 14:49 | 46.25290 | 11.72434 | 39278 ft | 457 kts | 129° |
| 2026-05-01 14:50 | 46.16657 | 11.86162 | 39298 ft | 458 kts | 129° |
| 2026-05-01 14:51 | 46.10180 | 11.96419 | 39313 ft | 460 kts | 129° |
| 2026-05-01 14:52 | 46.03667 | 12.06692 | 39326 ft | 461 kts | 129° |
| 2026-05-01 14:53 | 45.97907 | 12.15748 | 39323 ft | 461 kts | 129° |
| 2026-05-01 14:53 | 45.93599 | 12.22499 | 39321 ft | 459 kts | 129° |
| 2026-05-01 14:54 | 45.89236 | 12.29329 | 39322 ft | 459 kts | 128° |
| 2026-05-01 14:54 | 45.85048 | 12.36284 | 39325 ft | 458 kts | 127° |
| 2026-05-01 14:55 | 45.80911 | 12.43245 | 39327 ft | 458 kts | 127° |
| 2026-05-01 14:55 | 45.76782 | 12.50117 | 39324 ft | 457 kts | 127° |
| 2026-05-01 14:56 | 45.72651 | 12.56954 | 39321 ft | 457 kts | 127° |
| 2026-05-01 14:56 | 45.68466 | 12.63861 | 39317 ft | 456 kts | 127° |
| 2026-05-01 14:57 | 45.64344 | 12.70650 | 39317 ft | 456 kts | 127° |
| 2026-05-01 14:57 | 45.58104 | 12.80896 | 39316 ft | 455 kts | 127° |
| 2026-05-01 14:58 | 45.53941 | 12.87708 | 39314 ft | 455 kts | 127° |
| 2026-05-01 14:58 | 45.49774 | 12.94511 | 39310 ft | 455 kts | 127° |
| 2026-05-01 14:59 | 45.45612 | 13.01289 | 39306 ft | 455 kts | 126° |
| 2026-05-01 14:59 | 45.41439 | 13.08069 | 39313 ft | 454 kts | 126° |
| 2026-05-01 15:00 | 45.35175 | 13.18215 | 39304 ft | 454 kts | 126° |
| 2026-05-01 15:01 | 45.31021 | 13.24924 | 39301 ft | 454 kts | 126° |
| 2026-05-01 15:01 | 45.27058 | 13.31882 | 39299 ft | 451 kts | 122° |
| 2026-05-01 15:02 | 45.23223 | 13.38943 | 39298 ft | 452 kts | 122° |
| 2026-05-01 15:02 | 45.19336 | 13.45979 | 39299 ft | 452 kts | 123° |
| 2026-05-01 15:03 | 45.15428 | 13.52984 | 39306 ft | 453 kts | 123° |
| 2026-05-01 15:03 | 45.11529 | 13.59948 | 39313 ft | 453 kts | 123° |
| 2026-05-01 15:04 | 45.07613 | 13.66927 | 39317 ft | 453 kts | 123° |
| 2026-05-01 15:04 | 45.03684 | 13.73914 | 39312 ft | 453 kts | 122° |
| 2026-05-01 15:05 | 44.99755 | 13.80883 | 39302 ft | 453 kts | 123° |
| 2026-05-01 15:05 | 44.95817 | 13.87852 | 39296 ft | 453 kts | 123° |
| 2026-05-01 15:06 | 44.91869 | 13.94821 | 39287 ft | 453 kts | 123° |
| 2026-05-01 15:06 | 44.87922 | 14.01771 | 39292 ft | 454 kts | 123° |
| 2026-05-01 15:07 | 44.83971 | 14.08711 | 39290 ft | 454 kts | 123° |
| 2026-05-01 15:07 | 44.80011 | 14.15649 | 39282 ft | 454 kts | 123° |
| 2026-05-01 15:08 | 44.76048 | 14.22576 | 39286 ft | 454 kts | 123° |
| 2026-05-01 15:08 | 44.72099 | 14.29462 | 39283 ft | 454 kts | 123° |
| 2026-05-01 15:09 | 44.68123 | 14.36381 | 39284 ft | 455 kts | 123° |
| 2026-05-01 15:09 | 44.64154 | 14.43271 | 39286 ft | 455 kts | 123° |
| 2026-05-01 15:10 | 44.60163 | 14.50181 | 39289 ft | 455 kts | 123° |
| 2026-05-01 15:10 | 44.54158 | 14.60548 | 39287 ft | 456 kts | 123° |
| 2026-05-01 15:11 | 44.48142 | 14.70894 | 39284 ft | 456 kts | 123° |
| 2026-05-01 15:12 | 44.44097 | 14.77829 | 39281 ft | 456 kts | 124° |
| 2026-05-01 15:12 | 44.38098 | 14.88085 | 39274 ft | 456 kts | 124° |
| 2026-05-01 15:14 | 44.27995 | 15.05274 | 39256 ft | 456 kts | 124° |
| 2026-05-01 15:14 | 44.21938 | 15.15532 | 39237 ft | 456 kts | 124° |
| 2026-05-01 15:15 | 44.13895 | 15.29095 | 39227 ft | 457 kts | 125° |
| 2026-05-01 15:16 | 44.05997 | 15.42886 | 39229 ft | 455 kts | 121° |
| 2026-05-01 15:18 | 43.96627 | 15.60859 | 39235 ft | 457 kts | 122° |
| 2026-05-01 15:19 | 43.89188 | 15.74846 | 39237 ft | 458 kts | 123° |
| 2026-05-01 15:19 | 43.83487 | 15.85522 | 39237 ft | 459 kts | 123° |
| 2026-05-01 15:20 | 43.77767 | 15.96194 | 39231 ft | 460 kts | 123° |
| 2026-05-01 15:21 | 43.74580 | 16.02122 | 39223 ft | 461 kts | 123° |
| 2026-05-01 15:21 | 43.70750 | 16.09232 | 39213 ft | 461 kts | 124° |
| 2026-05-01 15:22 | 43.65023 | 16.19830 | 39191 ft | 460 kts | 124° |
| 2026-05-01 15:22 | 43.61158 | 16.26961 | 39189 ft | 461 kts | 124° |
| 2026-05-01 15:23 | 43.57332 | 16.34004 | 39186 ft | 462 kts | 124° |
| 2026-05-01 15:23 | 43.53456 | 16.41121 | 39186 ft | 463 kts | 124° |
| 2026-05-01 15:24 | 43.49571 | 16.48236 | 39187 ft | 464 kts | 124° |
| 2026-05-01 15:24 | 43.45704 | 16.55302 | 39194 ft | 465 kts | 124° |
| 2026-05-01 15:25 | 43.41795 | 16.62428 | 39198 ft | 466 kts | 124° |
| 2026-05-01 15:25 | 43.37872 | 16.69561 | 39201 ft | 467 kts | 124° |
| 2026-05-01 15:26 | 43.33967 | 16.76644 | 39206 ft | 467 kts | 124° |
| 2026-05-01 15:26 | 43.30028 | 16.83772 | 39212 ft | 468 kts | 124° |
| 2026-05-01 15:27 | 43.26080 | 16.90897 | 39207 ft | 469 kts | 124° |
| 2026-05-01 15:28 | 43.20167 | 17.01539 | 39200 ft | 469 kts | 124° |
| 2026-05-01 15:28 | 43.16204 | 17.08648 | 39189 ft | 469 kts | 124° |
| 2026-05-01 15:29 | 43.10243 | 17.19313 | 39190 ft | 470 kts | 124° |
| 2026-05-01 15:30 | 43.02305 | 17.33455 | 39182 ft | 470 kts | 125° |
| 2026-05-01 15:31 | 42.90294 | 17.54687 | 39180 ft | 471 kts | 127° |
| 2026-05-01 15:32 | 42.81826 | 17.68322 | 39178 ft | 472 kts | 128° |
| 2026-05-01 15:34 | 42.69105 | 17.88714 | 39167 ft | 472 kts | 129° |